Weather at Mantenimiento Del Via SRL Heliport

Public forecast

Using degrees Celsius for public forecast. Weather courtesy of forecast.io.

Closest aviation weather report (METAR) to Mantenimiento Del Via SRL Heliport

Closest report is Generalissimo Francisco de Miranda Air Base, 7.9 nm (14.7 km) S. Retrieved 2021/08/01 00:03 UTC (37 minutes ago):

SVFM 010003Z AUTO 13007KT NCD 24/20 Q1018

Closest aviation forecast (TAF) to Mantenimiento Del Via SRL Heliport

Closest forecast is Simón Bolívar International Airport, 9.8 nm (18.2 km) W. Retrieved 2021-08-01 00:00 UTC (40 minutes ago):

TAF SVMI 312200Z 0100/0200 08002KT 9999 SCT016 TX31/0118Z TN22/0108Z TEMPO 0100/0104 08005KT 9000 -DZ SCT016 BKN100